Time;durP1;ratioP1;P1;durP2;ratioP2;P2;SDS_P1;SDS_P2;PMS_P1;PMS_P2;Temp;Humidity;BMP_temperature;BMP_pressure;BME280_temperature;BME280_humidity;BME280_pressure;Samples;Min_cycle;Max_cycle;Signal;HPM_P1;HPM_P2
2022/03/03 00:00:15;;;;;;;13.90;8.80;;;5.90;97.30;;;;;;5163121;22;20460;-65
2022/03/03 00:02:16;;;;;;;13.13;8.43;;;5.90;96.40;;;;;;5163361;22;20515;-65
2022/03/03 00:04:17;;;;;;;14.35;8.57;;;5.90;95.70;;;;;;5164850;22;20020;-65
2022/03/03 00:06:17;;;;;;;14.23;8.57;;;5.90;94.70;;;;;;5163563;22;20486;-65
2022/03/03 00:08:18;;;;;;;13.68;8.15;;;5.90;95.30;;;;;;5164630;22;20013;-65
2022/03/03 00:10:19;;;;;;;14.18;8.55;;;5.90;96.00;;;;;;5163503;22;20087;-65
2022/03/03 00:12:20;;;;;;;14.00;8.38;;;5.90;98.10;;;;;;5163200;22;20117;-65
2022/03/03 00:14:21;;;;;;;16.48;9.10;;;5.90;98.20;;;;;;5163945;22;20452;-65
2022/03/03 00:16:21;;;;;;;16.80;9.18;;;5.90;99.40;;;;;;5163726;22;20005;-65
2022/03/03 00:18:22;;;;;;;16.25;9.52;;;5.90;99.10;;;;;;5164149;22;20082;-65
2022/03/03 00:20:22;;;;;;;13.43;9.00;;;5.80;98.90;;;;;;5162693;22;20017;-65
2022/03/03 00:22:23;;;;;;;13.35;8.90;;;5.80;99.90;;;;;;5163982;22;20012;-65
2022/03/03 00:24:23;;;;;;;14.40;9.02;;;5.80;99.90;;;;;;5163665;22;20097;-65
2022/03/03 00:26:24;;;;;;;13.02;8.68;;;5.80;99.90;;;;;;5163159;22;20115;-65
2022/03/03 00:28:25;;;;;;;17.40;10.15;;;5.80;99.90;;;;;;5163843;22;20012;-65
2022/03/03 00:30:26;;;;;;;15.45;10.10;;;5.80;99.90;;;;;;5162891;22;20020;-65
2022/03/03 00:32:26;;;;;;;16.20;9.13;;;5.80;99.90;;;;;;5163646;22;20082;-65
2022/03/03 00:34:27;;;;;;;15.77;9.20;;;5.80;99.90;;;;;;5163461;22;20087;-65
2022/03/03 00:36:28;;;;;;;16.83;9.85;;;5.80;99.90;;;;;;5162975;22;20333;-65
2022/03/03 00:38:28;;;;;;;16.92;9.52;;;5.80;99.90;;;;;;5163637;22;20063;-65
2022/03/03 00:40:29;;;;;;;14.38;8.90;;;5.80;99.90;;;;;;5162472;22;20016;-65
2022/03/03 00:42:30;;;;;;;15.48;9.40;;;5.70;99.90;;;;;;5163364;22;20067;-65
2022/03/03 00:44:30;;;;;;;14.85;9.18;;;5.70;99.90;;;;;;5163319;22;20004;-65
2022/03/03 00:46:32;;;;;;;16.50;9.30;;;5.70;99.90;;;;;;5161798;22;20467;-65
2022/03/03 00:48:33;;;;;;;18.25;10.13;;;5.70;99.90;;;;;;5163272;22;20012;-65
2022/03/03 00:50:34;;;;;;;17.83;9.70;;;5.70;99.90;;;;;;5162333;22;20014;-65
2022/03/03 00:52:35;;;;;;;14.60;9.23;;;5.60;99.90;;;;;;5164141;22;20012;-64
2022/03/03 00:54:35;;;;;;;15.15;9.48;;;5.60;99.90;;;;;;5164281;22;20019;-65
2022/03/03 00:56:36;;;;;;;13.95;9.00;;;5.60;99.90;;;;;;5163583;22;20008;-65
2022/03/03 00:58:36;;;;;;;14.40;9.07;;;5.60;99.90;;;;;;5164400;22;20397;-65
2022/03/03 01:00:37;;;;;;;15.23;9.68;;;5.60;99.20;;;;;;5162060;22;20145;-65
2022/03/03 01:02:38;;;;;;;14.00;8.80;;;5.50;98.50;;;;;;5163405;22;20012;-66
2022/03/03 01:04:39;;;;;;;15.07;8.75;;;5.60;98.00;;;;;;5164209;22;20008;-65
2022/03/03 01:06:39;;;;;;;14.18;9.32;;;5.50;97.90;;;;;;5162954;22;20039;-65
2022/03/03 01:08:40;;;;;;;15.85;8.98;;;5.50;98.90;;;;;;5164208;22;20008;-65
2022/03/03 01:10:41;;;;;;;16.50;9.60;;;5.40;98.50;;;;;;5162924;22;20012;-65
2022/03/03 01:12:41;;;;;;;17.05;10.32;;;5.40;99.10;;;;;;5163598;22;20099;-65
2022/03/03 01:14:42;;;;;;;15.07;9.25;;;5.40;99.90;;;;;;5165334;22;20015;-66
2022/03/03 01:16:43;;;;;;;16.52;10.32;;;5.30;99.90;;;;;;5165020;22;20008;-65
2022/03/03 01:18:44;;;;;;;18.70;11.10;;;5.30;99.90;;;;;;5164818;22;20036;-65
2022/03/03 01:20:44;;;;;;;17.88;10.52;;;5.30;99.90;;;;;;5164704;22;20130;-65
2022/03/03 01:22:45;;;;;;;16.88;9.73;;;5.30;99.90;;;;;;5165889;22;20341;-65
2022/03/03 01:24:45;;;;;;;18.52;11.05;;;5.30;99.90;;;;;;5162851;23;20012;-65
2022/03/03 01:26:46;;;;;;;18.13;10.52;;;5.00;99.30;;;;;;5164703;22;20081;-65
2022/03/03 01:28:47;;;;;;;16.17;10.18;;;4.90;99.10;;;;;;5166035;22;20012;-65
2022/03/03 01:30:47;;;;;;;18.27;10.40;;;4.80;99.90;;;;;;5165061;22;20000;-65
2022/03/03 01:32:48;;;;;;;18.27;11.18;;;4.60;99.90;;;;;;5165436;22;20016;-65
2022/03/03 01:34:48;;;;;;;17.45;10.45;;;4.30;99.90;;;;;;5165777;22;20011;-65
2022/03/03 01:36:49;;;;;;;16.30;10.23;;;4.30;99.90;;;;;;5164817;22;20025;-64
2022/03/03 01:38:50;;;;;;;17.38;9.88;;;4.40;99.90;;;;;;5165777;22;20012;-65
2022/03/03 01:40:50;;;;;;;18.52;10.55;;;4.40;99.90;;;;;;5160968;23;20004;-65
2022/03/03 01:42:52;;;;;;;17.15;9.18;;;4.40;99.90;;;;;;5163647;22;20436;-64
2022/03/03 01:44:53;;;;;;;16.60;9.93;;;4.40;99.90;;;;;;5164228;22;20317;-65
2022/03/03 01:46:55;;;;;;;17.83;10.20;;;4.50;99.90;;;;;;5164491;22;20019;-65
2022/03/03 01:48:56;;;;;;;14.07;8.82;;;4.50;99.90;;;;;;5165325;22;20016;-64
2022/03/03 01:50:57;;;;;;;16.00;9.73;;;4.50;99.90;;;;;;5164201;22;20340;-65
2022/03/03 01:52:57;;;;;;;18.35;9.55;;;4.50;99.90;;;;;;5164422;22;20020;-65
2022/03/03 01:54:59;;;;;;;17.80;9.80;;;4.50;99.90;;;;;;5164644;22;20071;-65
2022/03/03 01:56:59;;;;;;;15.52;9.07;;;4.60;99.90;;;;;;5163692;22;20004;-65
2022/03/03 01:59:00;;;;;;;17.23;9.60;;;4.60;99.90;;;;;;5164744;22;20058;-65
2022/03/03 02:01:01;;;;;;;14.43;9.52;;;4.60;99.90;;;;;;5163863;22;20027;-65
2022/03/03 02:03:01;;;;;;;15.98;9.38;;;4.60;99.90;;;;;;5164321;22;20016;-65
2022/03/03 02:05:02;;;;;;;15.77;9.38;;;4.60;99.90;;;;;;5164575;22;20083;-66
2022/03/03 02:07:03;;;;;;;21.00;9.45;;;4.60;99.90;;;;;;5163839;22;20019;-65
2022/03/03 02:09:04;;;;;;;16.55;10.20;;;4.60;99.90;;;;;;5164260;22;20004;-65
2022/03/03 02:11:05;;;;;;;15.98;9.25;;;4.60;99.90;;;;;;5163687;22;20074;-65
2022/03/03 02:13:07;;;;;;;16.55;8.98;;;4.60;99.90;;;;;;5164316;22;20089;-65
2022/03/03 02:15:15;;;;;;;15.07;9.35;;;4.60;99.90;;;;;;5163786;22;20432;-67
2022/03/03 02:17:16;;;;;;;16.95;9.85;;;4.60;99.90;;;;;;5163609;22;20432;-65
2022/03/03 02:19:18;;;;;;;16.38;10.25;;;4.60;99.90;;;;;;5165761;22;20087;-65
2022/03/03 02:21:18;;;;;;;19.33;10.20;;;4.60;99.90;;;;;;5166025;22;20351;-64
2022/03/03 02:23:19;;;;;;;18.05;10.35;;;4.60;99.90;;;;;;5166028;22;20012;-64
2022/03/03 02:25:20;;;;;;;15.35;8.68;;;4.60;99.90;;;;;;5165225;22;20012;-64
2022/03/03 02:27:24;;;;;;;15.88;8.93;;;4.60;99.90;;;;;;5165116;22;20019;-64
2022/03/03 02:29:24;;;;;;;14.90;9.10;;;4.60;99.90;;;;;;5165265;22;20083;-65
2022/03/03 02:31:25;;;;;;;15.52;9.48;;;4.60;99.90;;;;;;5164371;22;20118;-65
2022/03/03 02:33:26;;;;;;;19.10;9.88;;;4.60;99.90;;;;;;5164937;22;20078;-65
2022/03/03 02:35:29;;;;;;;16.65;9.70;;;4.60;99.90;;;;;;5163766;22;20488;-64
2022/03/03 02:37:38;;;;;;;16.73;9.43;;;4.60;99.90;;;;;;5164126;22;20376;-65
2022/03/03 02:39:38;;;;;;;15.80;9.45;;;4.60;99.90;;;;;;5163895;22;20090;-65
2022/03/03 02:41:39;;;;;;;13.27;8.48;;;4.60;99.90;;;;;;5163266;22;20034;-65
2022/03/03 02:43:40;;;;;;;19.45;9.55;;;4.60;99.90;;;;;;5163873;22;20012;-65
2022/03/03 02:45:40;;;;;;;14.25;9.38;;;4.50;99.90;;;;;;5163043;22;20012;-65
2022/03/03 02:47:43;;;;;;;18.35;10.38;;;4.50;99.90;;;;;;5163994;22;20019;-65
2022/03/03 02:49:43;;;;;;;19.67;10.85;;;4.50;99.90;;;;;;5163622;22;20066;-65
2022/03/03 02:51:44;;;;;;;18.00;10.82;;;4.30;99.90;;;;;;5164285;22;20016;-65
2022/03/03 02:53:45;;;;;;;20.25;11.13;;;4.10;99.90;;;;;;5164820;22;20268;-65
2022/03/03 02:55:45;;;;;;;18.95;10.63;;;3.80;99.90;;;;;;5164830;22;20004;-65
2022/03/03 02:57:55;;;;;;;21.75;11.65;;;3.80;99.90;;;;;;5165441;22;20013;-65
2022/03/03 02:59:57;;;;;;;19.13;10.45;;;3.90;99.90;;;;;;5164157;22;20024;-65
2022/03/03 03:01:57;;;;;;;17.38;9.63;;;3.90;99.90;;;;;;5163352;22;20448;-65
2022/03/03 03:03:58;;;;;;;17.40;9.77;;;3.90;99.90;;;;;;5164389;22;20027;-65
2022/03/03 03:05:58;;;;;;;16.95;10.57;;;4.00;99.90;;;;;;5163713;22;20024;-65
2022/03/03 03:07:59;;;;;;;17.30;9.73;;;4.00;99.90;;;;;;5164346;22;20042;-65
2022/03/03 03:09:59;;;;;;;16.55;9.75;;;4.00;99.90;;;;;;5164273;22;20393;-65
2022/03/03 03:12:00;;;;;;;14.70;9.75;;;4.10;99.90;;;;;;5163594;22;20045;-65
2022/03/03 03:14:01;;;;;;;16.05;9.55;;;4.10;99.90;;;;;;5163905;22;20012;-64
2022/03/03 03:16:01;;;;;;;16.88;9.48;;;4.10;99.90;;;;;;5163255;22;20438;-65
2022/03/03 03:18:13;;;;;;;19.27;9.73;;;4.10;99.90;;;;;;5164050;22;20008;-65
2022/03/03 03:20:13;;;;;;;19.42;9.38;;;4.20;99.90;;;;;;5162063;22;20031;-65
2022/03/03 03:22:14;;;;;;;17.10;10.02;;;4.20;99.90;;;;;;5165350;22;20008;-65
2022/03/03 03:24:15;;;;;;;15.07;9.73;;;4.20;99.90;;;;;;5165420;22;20078;-65
2022/03/03 03:26:16;;;;;;;20.95;10.43;;;4.20;99.90;;;;;;5164363;22;20454;-65
2022/03/03 03:28:18;;;;;;;15.52;9.60;;;4.20;99.90;;;;;;5164717;22;20012;-65
2022/03/03 03:30:19;;;;;;;18.88;9.57;;;4.20;99.90;;;;;;5162310;22;20050;-65
2022/03/03 03:32:19;;;;;;;16.05;9.80;;;4.20;99.90;;;;;;5163177;22;20008;-65
2022/03/03 03:34:20;;;;;;;17.23;9.88;;;4.20;99.90;;;;;;5164339;22;20012;-64
2022/03/03 03:36:21;;;;;;;15.38;9.43;;;4.20;99.90;;;;;;5163924;22;20379;-65
2022/03/03 03:38:21;;;;;;;17.88;9.77;;;4.20;99.90;;;;;;5164662;22;20038;-64
2022/03/03 03:40:22;;;;;;;17.85;10.23;;;4.20;99.90;;;;;;5163816;22;20016;-65
2022/03/03 03:42:23;;;;;;;18.58;10.15;;;4.20;99.90;;;;;;5164674;22;20016;-65
2022/03/03 03:44:24;;;;;;;15.63;9.73;;;4.20;99.90;;;;;;5164579;22;20012;-65
2022/03/03 03:46:24;;;;;;;21.60;11.30;;;4.20;99.90;;;;;;5163596;22;20043;-65
2022/03/03 03:48:25;;;;;;;22.70;11.00;;;4.20;99.90;;;;;;5164180;22;20100;-64
2022/03/03 03:50:26;;;;;;;20.33;11.35;;;4.20;99.90;;;;;;5163867;22;20012;-64
2022/03/03 03:52:28;;;;;;;15.73;9.98;;;4.20;99.90;;;;;;5164297;22;20024;-65
2022/03/03 03:54:28;;;;;;;16.25;9.57;;;4.10;99.90;;;;;;5164364;22;20027;-65
2022/03/03 03:56:29;;;;;;;17.95;9.60;;;4.10;99.90;;;;;;5162045;22;20389;-65
2022/03/03 03:58:30;;;;;;;15.00;9.45;;;4.00;99.90;;;;;;5162352;22;20057;-64
2022/03/03 04:00:30;;;;;;;16.40;9.23;;;4.00;99.90;;;;;;5161442;22;20016;-65
2022/03/03 04:02:31;;;;;;;17.05;9.93;;;4.00;99.90;;;;;;5163652;22;20054;-65
2022/03/03 04:04:32;;;;;;;16.13;9.25;;;4.00;99.90;;;;;;5163901;22;20324;-64
2022/03/03 04:06:32;;;;;;;16.65;9.40;;;4.00;99.90;;;;;;5161594;22;20101;-64
2022/03/03 04:08:33;;;;;;;15.30;9.48;;;4.00;99.90;;;;;;5163709;22;20011;-65
2022/03/03 04:10:34;;;;;;;16.92;9.32;;;4.00;99.90;;;;;;5163116;22;20012;-65
2022/03/03 04:12:34;;;;;;;16.98;9.60;;;4.00;99.90;;;;;;5163355;22;20016;-65
2022/03/03 04:14:36;;;;;;;19.45;10.90;;;4.00;99.90;;;;;;5186730;22;20019;-65
2022/03/03 04:16:36;;;;;;;17.10;9.83;;;4.00;99.90;;;;;;5162793;22;20014;-64
2022/03/03 04:18:37;;;;;;;20.88;9.90;;;3.90;99.90;;;;;;5163835;22;20429;-64
2022/03/03 04:20:38;;;;;;;17.50;9.90;;;3.90;99.90;;;;;;5162890;22;20081;-64
2022/03/03 04:22:39;;;;;;;16.00;9.18;;;3.90;99.90;;;;;;5163789;22;20062;-64
2022/03/03 04:24:40;;;;;;;16.67;9.90;;;3.90;99.90;;;;;;5163096;22;20051;-65
2022/03/03 04:26:41;;;;;;;19.02;11.10;;;3.90;99.90;;;;;;5164214;22;20040;-64
2022/03/03 04:28:41;;;;;;;18.98;10.20;;;3.90;99.90;;;;;;5165289;22;20000;-65
2022/03/03 04:30:42;;;;;;;20.65;10.68;;;3.90;99.90;;;;;;5164600;22;20016;-65
2022/03/03 04:32:43;;;;;;;17.02;9.35;;;3.90;99.90;;;;;;5164487;22;20004;-65
2022/03/03 04:34:43;;;;;;;18.77;9.50;;;3.80;99.90;;;;;;5165107;22;20019;-65
2022/03/03 04:36:44;;;;;;;15.13;9.57;;;3.80;99.90;;;;;;5164297;22;20079;-64
2022/03/03 04:38:47;;;;;;;15.88;9.68;;;3.80;99.90;;;;;;5164862;22;20004;-66
2022/03/03 04:40:48;;;;;;;19.35;11.00;;;3.80;99.90;;;;;;5162946;22;20004;-64
2022/03/03 04:42:52;;;;;;;17.50;9.98;;;3.80;99.90;;;;;;5166484;22;20009;-65
2022/03/03 04:44:52;;;;;;;21.90;9.77;;;3.80;99.90;;;;;;5166393;22;20016;-65
2022/03/03 04:46:53;;;;;;;19.17;10.02;;;3.80;99.90;;;;;;5165195;22;20004;-64
2022/03/03 04:48:59;;;;;;;18.17;9.80;;;3.80;99.90;;;;;;5166052;22;20015;-65
2022/03/03 04:51:00;;;;;;;16.27;10.05;;;3.80;99.90;;;;;;5164765;22;20016;-64
2022/03/03 04:53:00;;;;;;;17.50;10.00;;;3.80;99.90;;;;;;5165651;22;20018;-64
2022/03/03 04:55:02;;;;;;;21.00;10.63;;;3.70;99.90;;;;;;5165844;22;20010;-64
2022/03/03 04:57:03;;;;;;;17.15;10.15;;;3.70;99.90;;;;;;5164553;22;20036;-64
2022/03/03 04:59:05;;;;;;;18.30;9.65;;;3.80;99.90;;;;;;5165168;22;20306;-64
2022/03/03 05:01:05;;;;;;;16.57;10.07;;;3.80;99.90;;;;;;5163881;22;20449;-64
2022/03/03 05:03:06;;;;;;;16.92;10.25;;;3.80;99.90;;;;;;5164792;22;20020;-65
2022/03/03 05:05:07;;;;;;;19.65;10.93;;;3.80;99.90;;;;;;5164497;22;20008;-64
2022/03/03 05:07:08;;;;;;;17.80;10.73;;;3.70;99.90;;;;;;5164740;22;20090;-65
2022/03/03 05:09:08;;;;;;;17.85;10.15;;;3.70;99.90;;;;;;5164407;22;20421;-64
2022/03/03 05:11:09;;;;;;;18.40;11.05;;;3.70;99.90;;;;;;5164473;22;20004;-64
2022/03/03 05:13:09;;;;;;;18.15;9.98;;;3.70;99.90;;;;;;5164362;22;20013;-64
2022/03/03 05:15:10;;;;;;;18.20;9.95;;;3.70;99.90;;;;;;5163664;22;20070;-65
2022/03/03 05:17:11;;;;;;;20.40;9.75;;;3.70;99.90;;;;;;5164659;22;20006;-65
2022/03/03 05:19:11;;;;;;;17.10;9.65;;;3.60;99.90;;;;;;5162778;23;20403;-65
2022/03/03 05:21:12;;;;;;;17.17;10.18;;;3.70;99.90;;;;;;5162355;22;20452;-64
2022/03/03 05:23:13;;;;;;;17.02;10.00;;;3.60;99.90;;;;;;5162601;22;20023;-64
2022/03/03 05:25:14;;;;;;;18.27;10.02;;;3.60;99.90;;;;;;5159204;23;20075;-65
2022/03/03 05:27:15;;;;;;;21.02;10.93;;;3.60;99.90;;;;;;5162784;22;20523;-65
2022/03/03 05:29:16;;;;;;;19.55;10.43;;;3.60;99.90;;;;;;5161962;22;20483;-65
2022/03/03 05:31:17;;;;;;;16.70;10.25;;;3.60;99.90;;;;;;5163154;22;20073;-65
2022/03/03 05:33:17;;;;;;;17.65;10.68;;;3.60;99.90;;;;;;5164028;22;20496;-64
2022/03/03 05:35:19;;;;;;;18.83;10.90;;;3.50;99.90;;;;;;5163812;22;20474;-65
2022/03/03 05:37:22;;;;;;;21.15;11.32;;;3.50;99.90;;;;;;5160110;23;20012;-64
2022/03/03 05:39:23;;;;;;;22.20;11.55;;;3.50;99.90;;;;;;5162648;22;20087;-65
2022/03/03 05:41:24;;;;;;;19.83;10.50;;;3.50;99.90;;;;;;5162651;22;20440;-65
2022/03/03 05:43:26;;;;;;;16.17;9.98;;;3.50;99.90;;;;;;5163653;22;20035;-64
2022/03/03 05:45:27;;;;;;;19.23;10.13;;;3.50;99.90;;;;;;5163142;22;20456;-64
2022/03/03 05:47:29;;;;;;;19.95;10.73;;;3.50;99.90;;;;;;5163044;22;20008;-64
2022/03/03 05:49:30;;;;;;;21.05;10.88;;;3.50;99.90;;;;;;5163779;22;20018;-64
2022/03/03 05:51:31;;;;;;;18.17;10.35;;;3.40;99.90;;;;;;5162155;22;20099;-64
2022/03/03 05:53:32;;;;;;;21.15;10.82;;;3.40;99.90;;;;;;5163443;22;20024;-64
2022/03/03 05:55:38;;;;;;;16.33;9.63;;;3.40;99.90;;;;;;5162203;22;20076;-64
2022/03/03 05:57:43;;;;;;;20.65;11.20;;;3.40;99.90;;;;;;5162757;22;20021;-64
2022/03/03 05:59:46;;;;;;;17.75;9.65;;;3.40;99.90;;;;;;5161935;22;20047;-64
2022/03/03 06:01:47;;;;;;;18.13;10.52;;;3.40;99.90;;;;;;5161057;22;20035;-64
2022/03/03 06:03:50;;;;;;;18.33;10.07;;;3.40;99.90;;;;;;5163524;22;20463;-63
2022/03/03 06:05:53;;;;;;;18.95;10.80;;;3.40;99.90;;;;;;5163234;22;20004;-64
2022/03/03 06:08:05;;;;;;;18.80;10.13;;;3.40;99.90;;;;;;5164446;22;20341;-63
2022/03/03 06:10:06;;;;;;;20.05;10.07;;;3.30;99.90;;;;;;5160777;23;20008;-65
2022/03/03 06:12:07;;;;;;;21.05;10.57;;;3.20;99.90;;;;;;5162065;22;20028;-63
2022/03/03 06:14:09;;;;;;;20.13;10.82;;;3.20;99.90;;;;;;5162447;22;20023;-63
2022/03/03 06:16:11;;;;;;;24.58;10.98;;;3.20;99.90;;;;;;5162327;22;20336;-63
2022/03/03 06:18:12;;;;;;;18.25;10.27;;;3.20;99.90;;;;;;5159920;22;20012;-66
2022/03/03 06:20:13;;;;;;;18.35;10.40;;;3.20;99.90;;;;;;5162267;22;20461;-63
2022/03/03 06:22:14;;;;;;;17.38;9.65;;;3.20;99.90;;;;;;5161456;22;20375;-63
2022/03/03 06:24:14;;;;;;;17.40;9.70;;;3.20;99.90;;;;;;5162436;22;20080;-64
2022/03/03 06:26:18;;;;;;;18.52;10.13;;;3.20;99.90;;;;;;5160928;22;20012;-64
2022/03/03 06:28:18;;;;;;;19.60;10.50;;;3.20;99.90;;;;;;5162023;22;20012;-63
2022/03/03 06:30:19;;;;;;;17.35;9.82;;;3.20;99.90;;;;;;5163047;22;20103;-64
2022/03/03 06:32:19;;;;;;;18.85;10.07;;;3.20;99.90;;;;;;5163192;22;20629;-64
2022/03/03 06:34:20;;;;;;;18.73;9.75;;;3.20;99.90;;;;;;5163746;22;20078;-63
2022/03/03 06:36:21;;;;;;;17.52;10.23;;;3.20;99.90;;;;;;5162514;22;20004;-62
2022/03/03 06:38:22;;;;;;;19.08;9.77;;;3.20;99.90;;;;;;5163251;22;20091;-63
2022/03/03 06:40:22;;;;;;;17.23;10.50;;;3.20;99.90;;;;;;5159194;23;20027;-64
2022/03/03 06:42:23;;;;;;;20.20;10.50;;;3.20;99.90;;;;;;5161623;22;20031;-64
2022/03/03 06:44:24;;;;;;;20.45;10.82;;;3.20;99.90;;;;;;5163072;22;20013;-64
2022/03/03 06:46:24;;;;;;;19.35;10.43;;;3.20;99.90;;;;;;5162417;22;20130;-64
2022/03/03 06:48:25;;;;;;;21.85;10.88;;;3.20;99.90;;;;;;5162797;22;20480;-63
2022/03/03 06:50:26;;;;;;;16.60;9.95;;;3.20;99.90;;;;;;5158949;23;20066;-63
2022/03/03 06:52:27;;;;;;;19.10;10.25;;;3.20;99.90;;;;;;5161941;22;20016;-63
2022/03/03 06:54:32;;;;;;;19.40;10.45;;;3.20;99.90;;;;;;5162653;22;20051;-64
2022/03/03 06:56:35;;;;;;;17.75;9.70;;;3.20;99.90;;;;;;5161597;22;20425;-65
2022/03/03 06:58:37;;;;;;;20.40;11.63;;;3.20;99.90;;;;;;5162535;22;20000;-64
2022/03/03 07:00:37;;;;;;;19.93;10.87;;;3.20;99.90;;;;;;5157190;22;20032;-65
2022/03/03 07:02:38;;;;;;;22.90;11.85;;;3.30;99.90;;;;;;5158312;22;20250;-64
2022/03/03 07:04:40;;;;;;;20.00;10.85;;;3.30;99.90;;;;;;5162186;22;20393;-64
2022/03/03 07:06:43;;;;;;;21.20;11.13;;;3.50;99.90;;;;;;5160785;22;20023;-64
2022/03/03 07:08:43;;;;;;;19.75;11.35;;;3.60;99.90;;;;;;5161669;22;20012;-64
2022/03/03 07:10:46;;;;;;;22.38;11.20;;;3.80;99.90;;;;;;5161227;22;20035;-65
2022/03/03 07:12:50;;;;;;;22.77;11.35;;;4.00;99.90;;;;;;5161545;22;20013;-65
2022/03/03 07:14:50;;;;;;;21.90;11.98;;;4.10;99.90;;;;;;5161728;22;20012;-64
2022/03/03 07:17:02;;;;;;;26.42;12.35;;;4.30;99.90;;;;;;5162516;22;20105;-64
2022/03/03 07:19:05;;;;;;;18.85;10.82;;;4.60;99.90;;;;;;5160207;23;20011;-64
2022/03/03 07:21:16;;;;;;;20.42;10.48;;;4.80;99.90;;;;;;5161447;22;20024;-64
2022/03/03 07:23:39;;;;;;;18.92;10.90;;;5.10;99.90;;;;;;5160589;22;20408;-64
2022/03/03 07:25:48;;;;;;;20.17;10.77;;;5.40;99.90;;;;;;5160165;22;20030;-64
2022/03/03 07:27:53;;;;;;;20.65;12.52;;;5.70;99.90;;;;;;5160375;22;20016;-64
2022/03/03 07:29:59;;;;;;;25.48;13.23;;;5.80;99.90;;;;;;5162409;22;20016;-66
2022/03/03 07:32:06;;;;;;;22.55;12.88;;;5.60;99.90;;;;;;5161163;22;20009;-64
2022/03/03 07:34:07;;;;;;;28.40;11.88;;;5.80;99.90;;;;;;5161594;22;20396;-64
2022/03/03 07:36:09;;;;;;;23.27;11.87;;;5.80;99.90;;;;;;5160170;22;20023;-64
2022/03/03 07:38:15;;;;;;;23.60;12.65;;;6.10;99.90;;;;;;5159185;23;20008;-65
2022/03/03 07:40:17;;;;;;;22.83;12.02;;;6.10;99.90;;;;;;5159903;22;20008;-65
2022/03/03 07:42:19;;;;;;;19.95;10.95;;;6.30;99.90;;;;;;5157261;22;20011;-64
2022/03/03 07:44:19;;;;;;;21.27;10.65;;;6.80;99.90;;;;;;5160644;22;20023;-65
2022/03/03 07:46:21;;;;;;;19.20;11.18;;;7.10;99.90;;;;;;5160411;22;20400;-65
2022/03/03 07:48:23;;;;;;;19.45;11.30;;;7.30;99.90;;;;;;5156300;22;20011;-65
2022/03/03 07:50:25;;;;;;;19.63;11.13;;;7.50;99.90;;;;;;5159690;22;20008;-64
2022/03/03 07:52:26;;;;;;;18.55;10.90;;;7.50;99.90;;;;;;5162394;22;20008;-65
2022/03/03 07:54:27;;;;;;;19.20;11.38;;;7.80;99.90;;;;;;5161209;22;20055;-65
2022/03/03 07:56:31;;;;;;;19.08;10.75;;;7.90;99.90;;;;;;5158909;22;20012;-64
2022/03/03 07:58:41;;;;;;;19.58;11.85;;;8.10;98.90;;;;;;5161988;22;20012;-65
2022/03/03 08:00:47;;;;;;;17.42;10.88;;;8.10;98.40;;;;;;5162002;22;20055;-65
2022/03/03 08:02:50;;;;;;;19.63;10.90;;;8.10;95.20;;;;;;5163706;22;20658;-65
2022/03/03 08:04:52;;;;;;;19.70;11.88;;;7.90;95.30;;;;;;5163167;22;20020;-64
2022/03/03 08:06:55;;;;;;;26.58;12.63;;;7.90;95.80;;;;;;5164801;22;20432;-65
2022/03/03 08:08:59;;;;;;;19.13;10.77;;;7.90;94.60;;;;;;5163849;22;20074;-64
2022/03/03 08:11:05;;;;;;;20.98;11.45;;;8.40;99.90;;;;;;5164254;22;20057;-64
2022/03/03 08:13:08;;;;;;;16.88;10.85;;;8.50;93.40;;;;;;5164011;22;20035;-64
2022/03/03 08:15:09;;;;;;;;;;;8.40;94.80;;;;;;5163338;22;20096;-65
2022/03/03 08:17:23;;;;;;;21.60;12.00;;;8.40;93.40;;;;;;5149057;22;20283;-65
2022/03/03 08:19:24;;;;;;;21.73;11.45;;;8.50;92.80;;;;;;5136097;23;20339;-65
2022/03/03 08:21:26;;;;;;;20.35;11.70;;;8.80;94.00;;;;;;5173209;22;20429;-65
2022/03/03 08:23:27;;;;;;;17.42;10.60;;;9.10;94.30;;;;;;5164876;22;20047;-64
2022/03/03 08:25:29;;;;;;;19.25;10.65;;;9.20;90.80;;;;;;5162383;22;20020;-65
2022/03/03 08:27:29;;;;;;;18.17;10.38;;;9.40;92.30;;;;;;5164330;22;20012;-64
2022/03/03 08:29:30;;;;;;;18.45;11.57;;;9.70;91.80;;;;;;5164399;22;20004;-64
2022/03/03 08:31:42;;;;;;;18.80;11.32;;;9.70;91.40;;;;;;5164301;22;20055;-64
2022/03/03 08:34:09;;;;;;;19.08;11.77;;;9.90;91.00;;;;;;5163063;22;20016;-65
2022/03/03 08:36:35;;;;;;;19.35;11.23;;;10.40;91.50;;;;;;5161697;23;20004;-65
2022/03/03 08:38:46;;;;;;;17.13;10.88;;;10.80;90.90;;;;;;5163984;22;20066;-65
2022/03/03 08:40:50;;;;;;;20.10;11.18;;;11.20;90.00;;;;;;5163427;22;20027;-65
2022/03/03 08:42:56;;;;;;;17.00;10.93;;;11.30;86.00;;;;;;5163482;22;20012;-65
2022/03/03 08:45:02;;;;;;;16.02;9.57;;;11.50;84.60;;;;;;5163191;22;20019;-65
2022/03/03 08:47:04;;;;;;;18.42;10.65;;;11.80;86.30;;;;;;5161277;23;20012;-64
2022/03/03 08:49:07;;;;;;;17.15;10.98;;;12.00;82.00;;;;;;5162274;22;20008;-64
2022/03/03 08:51:10;;;;;;;18.67;11.13;;;11.80;78.10;;;;;;5162344;22;20339;-64
2022/03/03 08:53:11;;;;;;;18.17;10.90;;;11.70;77.30;;;;;;5163915;22;20023;-64
2022/03/03 08:55:13;;;;;;;17.25;10.43;;;11.80;83.30;;;;;;5162690;22;20008;-65
2022/03/03 08:57:14;;;;;;;17.52;10.93;;;11.50;77.00;;;;;;5163055;22;20012;-64
2022/03/03 08:59:15;;;;;;;18.95;10.88;;;11.30;74.90;;;;;;5164007;22;20008;-65
2022/03/03 09:01:16;;;;;;;16.55;10.38;;;11.00;74.80;;;;;;5163031;22;20023;-65
2022/03/03 09:03:22;;;;;;;15.55;10.10;;;11.20;78.80;;;;;;5162820;22;20432;-65
2022/03/03 09:05:23;;;;;;;17.58;10.48;;;11.30;78.80;;;;;;5159585;23;20102;-64
2022/03/03 09:07:23;;;;;;;16.70;10.02;;;11.10;72.10;;;;;;5165355;22;20462;-64
2022/03/03 09:09:24;;;;;;;16.92;10.73;;;11.10;71.80;;;;;;5164510;22;20379;-64
2022/03/03 09:11:25;;;;;;;17.50;10.38;;;11.00;72.30;;;;;;5163257;22;20008;-65
2022/03/03 09:13:25;;;;;;;17.25;10.93;;;11.00;71.90;;;;;;5162850;22;20016;-65
2022/03/03 09:15:30;;;;;;;18.67;10.68;;;10.60;70.00;;;;;;5161447;22;20504;-65
2022/03/03 09:17:31;;;;;;;20.20;10.90;;;10.60;66.70;;;;;;5162471;22;20008;-64
2022/03/03 09:19:32;;;;;;;14.40;9.48;;;10.90;66.30;;;;;;5163030;22;20008;-65
2022/03/03 09:21:33;;;;;;;16.98;9.88;;;11.10;73.00;;;;;;5162269;22;20018;-65
2022/03/03 09:23:33;;;;;;;16.75;9.85;;;11.30;68.50;;;;;;5162268;22;20008;-65
2022/03/03 09:25:36;;;;;;;17.33;9.82;;;11.40;70.00;;;;;;5160856;22;20428;-65
2022/03/03 09:27:37;;;;;;;19.83;10.75;;;11.50;66.60;;;;;;5161551;22;20012;-65
2022/03/03 09:29:38;;;;;;;15.30;9.80;;;11.70;67.30;;;;;;5158911;23;20016;-64
2022/03/03 09:31:38;;;;;;;16.10;9.82;;;11.80;71.30;;;;;;5161787;22;20028;-64
2022/03/03 09:33:39;;;;;;;15.80;9.52;;;11.90;71.40;;;;;;5161929;22;20016;-64
2022/03/03 09:35:40;;;;;;;18.33;11.23;;;12.10;67.40;;;;;;5160944;22;20062;-64
2022/03/03 09:37:41;;;;;;;17.27;10.80;;;12.20;67.70;;;;;;5162685;22;20020;-64
2022/03/03 09:39:43;;;;;;;15.50;10.00;;;12.30;66.00;;;;;;5161285;22;20008;-64
2022/03/03 09:41:44;;;;;;;17.02;10.60;;;12.50;67.70;;;;;;5157591;22;20012;-64
2022/03/03 09:43:45;;;;;;;21.17;11.02;;;12.20;60.30;;;;;;5162155;22;20027;-65
2022/03/03 09:45:45;;;;;;;15.73;10.25;;;12.20;60.60;;;;;;5160942;22;20012;-64
2022/03/03 09:47:46;;;;;;;17.55;10.07;;;12.30;69.30;;;;;;5162480;22;20019;-64
2022/03/03 09:49:46;;;;;;;18.73;10.80;;;12.10;60.10;;;;;;5162511;22;20028;-64
2022/03/03 09:51:47;;;;;;;15.35;9.38;;;12.30;64.40;;;;;;5161347;22;20023;-64
2022/03/03 09:53:49;;;;;;;16.08;9.95;;;12.40;61.60;;;;;;5161500;22;20051;-64
2022/03/03 09:55:50;;;;;;;14.80;8.88;;;12.30;60.20;;;;;;5160308;22;20091;-65
2022/03/03 09:57:51;;;;;;;12.77;9.00;;;12.50;62.20;;;;;;5161279;22;20084;-64
2022/03/03 09:59:52;;;;;;;15.52;9.63;;;12.40;58.20;;;;;;5163046;22;20066;-64
2022/03/03 10:02:02;;;;;;;12.90;8.93;;;12.50;62.10;;;;;;5162453;22;20008;-64
2022/03/03 10:04:22;;;;;;;13.77;8.95;;;12.60;62.90;;;;;;5162375;22;20048;-64
2022/03/03 10:06:23;;;;;;;16.38;9.73;;;12.70;60.20;;;;;;5160724;22;20054;-64
2022/03/03 10:08:25;;;;;;;15.73;9.77;;;12.70;58.90;;;;;;5162600;22;20020;-64
2022/03/03 10:10:26;;;;;;;15.50;10.32;;;12.60;60.10;;;;;;5162613;22;20013;-64
2022/03/03 10:12:27;;;;;;;17.65;9.65;;;12.70;59.90;;;;;;5162906;22;20012;-64
2022/03/03 10:14:35;;;;;;;15.30;9.13;;;12.70;59.00;;;;;;5159016;23;20410;-64
2022/03/03 10:16:35;;;;;;;18.60;10.18;;;12.80;58.70;;;;;;5159443;23;20403;-64
2022/03/03 10:18:36;;;;;;;19.05;10.05;;;12.90;62.50;;;;;;5162320;22;20004;-64
2022/03/03 10:21:06;;;;;;;14.20;9.82;;;12.90;58.30;;;;;;5160589;22;20008;-64
2022/03/03 10:23:08;;;;;;;13.85;9.13;;;12.90;58.90;;;;;;5135309;22;20317;-64
2022/03/03 10:25:11;;;;;;;14.10;9.18;;;12.90;57.70;;;;;;5160948;22;20073;-66
2022/03/03 10:27:12;;;;;;;13.68;8.88;;;12.70;56.50;;;;;;5161787;22;20009;-64
2022/03/03 10:29:17;;;;;;;16.55;9.70;;;12.90;63.40;;;;;;5161765;22;20028;-64